createdAt,value
2023-01-13T00:00:05.670Z,36.85
2023-01-13T00:03:07.582Z,62.90
2023-01-13T00:06:13.848Z,64.12
2023-01-13T00:09:15.763Z,70.72
2023-01-13T00:12:17.625Z,43.42
2023-01-13T00:15:19.400Z,39.13
2023-01-13T00:18:21.200Z,37.28
2023-01-13T00:21:25.069Z,40.28
2023-01-13T00:24:27.278Z,49.22
2023-01-13T00:27:29.427Z,94.13
2023-01-13T00:30:31.241Z,73.45
2023-01-13T00:33:35.230Z,48.33
2023-01-13T00:36:37.165Z,58.22
2023-01-13T00:39:39.093Z,53.10
2023-01-13T00:42:59.772Z,72.87
2023-01-13T00:46:02.697Z,30.48
2023-01-13T00:49:04.598Z,31.02
2023-01-13T00:52:06.721Z,31.02
2023-01-13T00:55:08.953Z,29.80
2023-01-13T00:58:10.756Z,43.53
2023-01-13T01:01:17.592Z,30.12
2023-01-13T01:04:19.453Z,38.92
2023-01-13T01:07:21.315Z,33.00
2023-01-13T01:10:23.135Z,29.77
2023-01-13T01:13:24.926Z,33.25
2023-01-13T01:16:29.387Z,42.08
2023-01-13T01:19:32.271Z,34.83
2023-01-13T01:22:34.082Z,35.78
2023-01-13T01:25:35.879Z,34.97
2023-01-13T01:28:37.679Z,29.75
2023-01-13T01:31:39.522Z,31.27
2023-01-13T01:34:42.348Z,27.73
2023-01-13T01:37:44.171Z,34.65
2023-01-13T01:40:45.956Z,32.92
2023-01-13T01:44:06.083Z,31.85
2023-01-13T01:47:14.092Z,30.62
2023-01-13T01:50:17.392Z,29.05
2023-01-13T01:53:24.410Z,34.25
2023-01-13T01:56:26.348Z,29.55
2023-01-13T01:59:32.232Z,28.23
2023-01-13T02:02:34.507Z,25.55
2023-01-13T02:05:36.791Z,27.20
2023-01-13T02:08:41.436Z,27.80
2023-01-13T02:12:01.963Z,25.30
2023-01-13T02:15:11.615Z,23.52
2023-01-13T02:18:22.431Z,27.50
2023-01-13T02:22:01.851Z,25.48
2023-01-13T02:25:35.821Z,26.87
2023-01-13T02:29:27.071Z,35.13
2023-01-13T02:33:03.143Z,28.50
2023-01-13T02:36:11.071Z,27.90
2023-01-13T02:39:23.784Z,35.70
2023-01-13T02:42:53.741Z,26.05
2023-01-13T02:46:20.765Z,25.65
2023-01-13T02:49:40.466Z,27.15
2023-01-13T02:52:55.619Z,28.98
2023-01-13T02:55:59.048Z,26.55
2023-01-13T02:59:02.131Z,24.70
2023-01-13T03:02:04.845Z,27.73
2023-01-13T03:05:07.112Z,28.12
2023-01-13T03:08:17.936Z,24.77
2023-01-13T03:11:20.803Z,30.98
2023-01-13T03:14:31.647Z,23.45
2023-01-13T03:17:50.000Z,21.52
2023-01-13T03:21:06.390Z,29.65
2023-01-13T03:24:20.055Z,24.98
2023-01-13T03:27:40.622Z,26.00
2023-01-13T03:30:50.239Z,23.10
2023-01-13T03:33:59.931Z,26.02
2023-01-13T03:37:05.850Z,26.75
2023-01-13T03:40:30.025Z,23.73
2023-01-13T03:44:00.864Z,24.40
2023-01-13T03:47:30.742Z,26.42
2023-01-13T03:50:40.700Z,22.87
2023-01-13T03:53:57.436Z,25.62
2023-01-13T03:57:07.412Z,20.27
2023-01-13T04:00:12.574Z,20.58
2023-01-13T04:03:22.327Z,18.10
2023-01-13T04:06:45.505Z,21.77
2023-01-13T04:09:56.954Z,20.12
2023-01-13T04:13:13.259Z,19.62
2023-01-13T04:16:15.504Z,18.42
2023-01-13T04:19:17.177Z,22.67
2023-01-13T04:22:18.936Z,21.08
2023-01-13T04:25:20.598Z,23.62
2023-01-13T04:28:23.336Z,22.42
2023-01-13T04:31:25.153Z,23.75
2023-01-13T04:34:28.406Z,22.62
2023-01-13T04:37:30.262Z,29.63
2023-01-13T04:40:33.020Z,21.02
2023-01-13T04:43:34.755Z,18.75
2023-01-13T04:46:36.554Z,20.23
2023-01-13T04:49:38.264Z,18.73
2023-01-13T04:52:40.036Z,18.52
2023-01-13T04:55:41.845Z,15.73
2023-01-13T04:58:43.540Z,21.48
2023-01-13T05:01:45.435Z,18.65
2023-01-13T05:04:47.903Z,19.02
2023-01-13T05:07:49.651Z,21.75
2023-01-13T05:10:51.440Z,20.20
2023-01-13T05:14:11.656Z,19.70
2023-01-13T05:17:20.019Z,18.87
2023-01-13T05:20:22.861Z,22.33
2023-01-13T05:24:00.157Z,21.42
2023-01-13T05:27:01.909Z,24.85
2023-01-13T05:30:04.357Z,24.50
2023-01-13T05:33:06.030Z,27.62
2023-01-13T05:36:08.254Z,20.60
2023-01-13T05:39:09.969Z,21.92
2023-01-13T05:42:30.309Z,31.00
2023-01-13T05:45:32.273Z,25.75
2023-01-13T05:48:39.813Z,21.87
2023-01-13T05:54:49.085Z,21.77
2023-01-13T05:57:50.796Z,21.50
2023-01-13T06:00:53.148Z,18.27
2023-01-13T06:03:54.803Z,44.40
2023-01-13T06:06:56.526Z,22.80
2023-01-13T06:09:58.261Z,23.23
2023-01-13T06:13:01.249Z,32.92
2023-01-13T06:16:05.112Z,18.10
2023-01-13T06:19:09.109Z,26.30
2023-01-13T06:22:21.963Z,30.27
2023-01-13T06:26:02.249Z,22.30
2023-01-13T06:29:04.531Z,16.85
2023-01-13T06:32:11.433Z,23.33
2023-01-13T06:35:17.344Z,21.92
2023-01-13T06:38:21.095Z,21.40
2023-01-13T06:41:43.684Z,19.00
2023-01-13T06:44:46.369Z,25.50
2023-01-13T06:47:48.142Z,27.55
2023-01-13T06:50:49.963Z,48.85
2023-01-13T06:53:51.707Z,29.23
2023-01-13T06:56:53.407Z,52.53
2023-01-13T06:59:55.339Z,32.45
2023-01-13T07:03:10.321Z,34.55
2023-01-13T07:06:12.023Z,26.60
2023-01-13T07:09:13.727Z,20.98
2023-01-13T07:12:15.474Z,24.63
2023-01-13T07:15:19.724Z,23.40
2023-01-13T07:18:21.820Z,23.67
2023-01-13T07:21:23.668Z,16.60
2023-01-13T07:24:25.378Z,34.03
2023-01-13T07:27:27.111Z,26.08
2023-01-13T07:30:28.789Z,38.45
2023-01-13T07:33:33.888Z,31.05
2023-01-13T07:36:36.237Z,28.38
2023-01-13T07:39:38.018Z,47.17
2023-01-13T07:42:59.427Z,26.48
2023-01-13T07:46:04.906Z,23.98
2023-01-13T07:49:07.551Z,30.20
2023-01-13T07:52:11.306Z,28.15
2023-01-13T07:55:14.108Z,32.83
2023-01-13T07:58:16.928Z,21.00
2023-01-13T08:01:19.543Z,25.95
2023-01-13T08:04:21.433Z,27.65
2023-01-13T08:07:24.239Z,19.58
2023-01-13T08:10:28.096Z,30.70
2023-01-13T08:13:30.325Z,25.77
2023-01-13T08:16:34.522Z,30.77
2023-01-13T08:19:36.298Z,22.20
2023-01-13T08:22:38.479Z,23.23
2023-01-13T08:25:40.472Z,19.87
2023-01-13T08:28:42.210Z,28.60
2023-01-13T08:31:43.985Z,18.10
2023-01-13T08:34:45.673Z,25.50
2023-01-13T08:37:48.172Z,21.37
2023-01-13T08:40:51.991Z,39.38
2023-01-13T08:43:53.778Z,98.05
2023-01-13T08:46:56.495Z,44.85
2023-01-13T08:49:58.206Z,34.25
2023-01-13T08:53:00.444Z,28.00
2023-01-13T08:56:10.989Z,25.70
2023-01-13T08:59:14.654Z,30.15
2023-01-13T09:02:19.425Z,18.62
2023-01-13T09:05:21.388Z,22.55
2023-01-13T09:08:23.095Z,25.88
2023-01-13T09:11:52.879Z,33.03
2023-01-13T09:14:54.653Z,48.95
2023-01-13T09:17:56.303Z,65.37
2023-01-13T09:20:59.133Z,33.58
2023-01-13T09:24:00.874Z,26.62
2023-01-13T09:27:02.635Z,22.58
2023-01-13T09:30:05.426Z,22.45
2023-01-13T09:33:25.409Z,44.08
2023-01-13T09:36:27.133Z,33.80
2023-01-13T09:39:28.988Z,35.85
2023-01-13T09:43:03.648Z,39.00
2023-01-13T09:46:47.633Z,17.50
2023-01-13T09:49:49.529Z,34.55
2023-01-13T09:52:52.253Z,20.55
2023-01-13T09:55:55.095Z,49.53
2023-01-13T09:58:57.766Z,28.58
2023-01-13T10:02:13.926Z,22.75
2023-01-13T10:05:43.132Z,30.52
2023-01-13T10:08:47.166Z,36.08
2023-01-13T10:12:09.560Z,30.40
2023-01-13T10:15:19.209Z,37.50
2023-01-13T10:18:39.777Z,44.15
2023-01-13T10:22:09.365Z,22.08
2023-01-13T10:25:31.713Z,29.12
2023-01-13T10:28:33.399Z,19.27
2023-01-13T10:31:35.203Z,26.15
2023-01-13T10:35:05.724Z,37.97
2023-01-13T10:38:17.113Z,55.72
2023-01-13T10:41:24.742Z,38.80
2023-01-13T10:44:27.527Z,62.70
2023-01-13T10:47:31.256Z,47.10
2023-01-13T10:50:36.840Z,38.80
2023-01-13T10:53:47.334Z,70.60
2023-01-13T10:56:50.269Z,76.12
2023-01-13T10:59:53.217Z,85.85
2023-01-13T11:03:13.867Z,37.35
2023-01-13T11:06:28.794Z,69.78
2023-01-13T11:09:32.835Z,30.23
2023-01-13T11:12:44.387Z,28.95
2023-01-13T11:16:04.196Z,39.28
2023-01-13T11:19:12.473Z,32.13
2023-01-13T11:22:23.510Z,30.65
2023-01-13T11:25:35.346Z,30.27
2023-01-13T11:29:00.571Z,36.55
2023-01-13T11:32:35.597Z,29.17
2023-01-13T11:36:11.141Z,32.63
2023-01-13T11:39:26.429Z,32.95
2023-01-13T11:43:04.953Z,43.15
2023-01-13T11:46:09.888Z,31.00
2023-01-13T11:49:23.895Z,29.17
2023-01-13T11:52:45.048Z,33.85
2023-01-13T11:56:04.918Z,35.30
2023-01-13T11:59:25.687Z,36.53
2023-01-13T12:02:27.419Z,38.15
2023-01-13T12:05:46.203Z,37.00
2023-01-13T12:08:59.627Z,35.80
2023-01-13T12:12:22.874Z,35.05
2023-01-13T12:15:35.960Z,38.45
2023-01-13T12:19:07.521Z,35.95
2023-01-13T12:22:31.915Z,27.77
2023-01-13T12:25:41.966Z,34.38
2023-01-13T12:28:50.155Z,36.85
2023-01-13T12:31:52.621Z,27.90
2023-01-13T12:35:18.809Z,33.22
2023-01-13T12:38:34.432Z,35.38
2023-01-13T12:42:29.902Z,32.33
2023-01-13T12:45:33.890Z,32.08
2023-01-13T12:48:57.061Z,37.22
2023-01-13T12:52:13.754Z,36.13
2023-01-13T12:55:26.903Z,37.67
2023-01-13T12:58:28.996Z,42.33
2023-01-13T13:01:37.708Z,37.30
2023-01-13T13:04:42.534Z,44.35
2023-01-13T13:07:53.524Z,35.05
2023-01-13T13:11:01.684Z,35.60
2023-01-13T13:14:07.422Z,43.85
2023-01-13T13:17:25.395Z,47.47
2023-01-13T13:24:04.071Z,159.87
2023-01-13T13:30:36.988Z,125.60
2023-01-13T13:33:56.065Z,51.60
2023-01-13T13:37:16.707Z,59.05
2023-01-13T13:40:36.980Z,52.58
2023-01-13T13:44:04.558Z,57.60
2023-01-13T13:47:07.468Z,48.17
2023-01-13T13:50:15.384Z,45.63
2023-01-13T13:53:19.802Z,55.92
2023-01-13T13:56:27.917Z,41.58
2023-01-13T13:59:30.936Z,43.58
2023-01-13T14:02:37.503Z,46.15
2023-01-13T14:05:39.276Z,40.12
2023-01-13T14:08:46.612Z,57.67
2023-01-13T14:15:01.324Z,44.10
2023-01-13T14:18:06.057Z,48.33
2023-01-13T14:21:22.312Z,50.92
2023-01-13T14:24:25.134Z,52.50
2023-01-13T14:27:28.719Z,47.25
2023-01-13T14:30:32.172Z,51.10
2023-01-13T14:33:46.953Z,51.47
2023-01-13T14:36:51.195Z,57.38
2023-01-13T14:39:52.917Z,53.17
2023-01-13T14:43:02.398Z,55.53
2023-01-13T14:46:04.285Z,48.67
2023-01-13T14:49:16.344Z,54.65
2023-01-13T14:52:21.898Z,79.50
2023-01-13T14:55:34.417Z,92.05
2023-01-13T14:58:36.137Z,75.12
2023-01-13T15:01:41.827Z,61.45
2023-01-13T15:04:43.537Z,38.13
2023-01-13T15:07:51.313Z,57.08
2023-01-13T15:11:01.825Z,67.00
2023-01-13T15:14:10.741Z,76.15
2023-01-13T15:17:17.508Z,60.58
2023-01-13T15:20:21.757Z,69.47
2023-01-13T15:23:23.661Z,93.43
2023-01-13T15:26:28.309Z,64.43
2023-01-13T15:29:30.147Z,59.85
2023-01-13T15:32:31.854Z,59.90
2023-01-13T15:35:33.802Z,79.00
2023-01-13T15:38:35.473Z,73.40
2023-01-13T15:41:55.772Z,65.20
2023-01-13T15:45:17.076Z,53.60
2023-01-13T15:48:21.463Z,54.95
2023-01-13T15:51:23.245Z,50.03
2023-01-13T15:54:25.043Z,46.58
2023-01-13T15:57:34.193Z,46.25
2023-01-13T16:00:35.978Z,43.33
2023-01-13T16:03:37.701Z,39.20
2023-01-13T16:06:39.459Z,47.47
2023-01-13T16:09:41.142Z,48.15
2023-01-13T16:12:42.916Z,48.95
2023-01-13T16:15:49.782Z,47.58
2023-01-13T16:18:52.822Z,50.03
2023-01-13T16:21:55.254Z,72.75
2023-01-13T16:24:57.092Z,60.12
2023-01-13T16:27:58.833Z,59.00
2023-01-13T16:31:00.544Z,49.22
2023-01-13T16:34:04.052Z,50.83
2023-01-13T16:37:19.078Z,50.85
2023-01-13T16:40:23.919Z,49.25
2023-01-13T16:43:25.735Z,58.20
2023-01-13T16:46:29.934Z,63.00
2023-01-13T16:49:31.761Z,63.65
2023-01-13T16:52:33.447Z,63.63
2023-01-13T16:55:36.907Z,79.68
2023-01-13T16:58:38.695Z,78.70
2023-01-13T17:01:42.646Z,58.78
2023-01-13T17:04:44.852Z,77.85
2023-01-13T17:07:47.974Z,56.70
2023-01-13T17:10:50.849Z,69.22
2023-01-13T17:13:52.574Z,60.45
2023-01-13T17:16:58.474Z,52.60
2023-01-13T17:20:00.296Z,60.17
2023-01-13T17:23:02.100Z,63.17
2023-01-13T17:26:05.241Z,41.17
2023-01-13T17:29:11.770Z,100.70
2023-01-13T17:32:18.818Z,60.65
2023-01-13T17:35:24.841Z,59.45
2023-01-13T17:38:29.397Z,75.68
2023-01-13T17:41:31.607Z,66.78
2023-01-13T17:44:33.381Z,57.30
2023-01-13T17:47:35.229Z,58.53
2023-01-13T17:50:36.912Z,89.50
2023-01-13T17:53:42.074Z,113.50
2023-01-13T17:56:44.108Z,105.50
2023-01-13T17:59:48.262Z,62.90
2023-01-13T18:02:50.223Z,105.22
2023-01-13T18:05:51.946Z,75.25
2023-01-13T18:08:54.514Z,68.62
2023-01-13T18:11:56.652Z,70.43
2023-01-13T18:14:58.517Z,78.22
2023-01-13T18:18:00.968Z,81.68
2023-01-13T18:21:22.942Z,65.50
2023-01-13T18:24:43.574Z,63.78
2023-01-13T18:27:45.950Z,91.18
2023-01-13T18:30:53.747Z,68.05
2023-01-13T18:33:56.346Z,90.38
2023-01-13T18:37:00.681Z,73.82
2023-01-13T18:40:03.736Z,67.65
2023-01-13T18:43:05.720Z,61.00
2023-01-13T18:46:08.697Z,64.55
2023-01-13T18:49:10.945Z,58.35
2023-01-13T18:52:13.418Z,47.88
2023-01-13T18:55:15.439Z,40.85
2023-01-13T18:58:17.887Z,47.50
2023-01-13T19:01:22.715Z,40.70
2023-01-13T19:04:24.978Z,44.90
2023-01-13T19:07:29.431Z,46.72
2023-01-13T19:10:32.919Z,50.15
2023-01-13T19:13:35.867Z,59.17
2023-01-13T19:16:37.780Z,61.83
2023-01-13T19:19:44.142Z,52.97
2023-01-13T19:22:53.813Z,47.75
2023-01-13T19:25:59.943Z,49.85
2023-01-13T19:29:02.715Z,49.38
2023-01-13T19:32:04.652Z,31.27
2023-01-13T19:35:08.956Z,40.53
2023-01-13T19:38:11.322Z,44.83
2023-01-13T19:41:33.525Z,72.43
2023-01-13T19:44:53.983Z,103.97
2023-01-13T19:47:57.517Z,97.60
2023-01-13T19:51:03.161Z,143.27
2023-01-13T19:54:05.327Z,144.23
2023-01-13T19:57:07.477Z,137.20
2023-01-13T20:00:11.924Z,117.90
2023-01-13T20:03:20.925Z,108.75
2023-01-13T20:06:23.426Z,113.53
2023-01-13T20:09:25.898Z,92.25
2023-01-13T20:12:28.968Z,90.30
2023-01-13T20:15:31.884Z,98.70
2023-01-13T20:18:36.764Z,87.60
2023-01-13T20:21:39.953Z,70.32
2023-01-13T20:24:44.138Z,77.75
2023-01-13T20:27:48.441Z,63.40
2023-01-13T20:30:51.081Z,46.97
2023-01-13T20:33:53.417Z,45.15
2023-01-13T20:36:55.757Z,40.08
2023-01-13T20:40:02.487Z,39.22
2023-01-13T20:43:05.458Z,39.92
2023-01-13T20:46:07.309Z,41.58
2023-01-13T20:49:11.561Z,42.72
2023-01-13T20:52:14.692Z,33.97
2023-01-13T20:55:16.643Z,31.27
2023-01-13T20:58:18.899Z,30.23
2023-01-13T21:01:21.305Z,28.65
2023-01-13T21:04:23.729Z,30.62
2023-01-13T21:07:25.887Z,31.15
2023-01-13T21:10:27.679Z,30.10
2023-01-13T21:13:48.178Z,33.33
2023-01-13T21:16:51.550Z,27.98
2023-01-13T21:19:53.422Z,32.28
2023-01-13T21:22:55.127Z,30.88
2023-01-13T21:25:56.817Z,32.08
2023-01-13T21:29:00.071Z,29.05
2023-01-13T21:32:01.821Z,32.50
2023-01-13T21:35:03.709Z,29.50
2023-01-13T21:38:05.537Z,31.12
2023-01-13T21:41:09.021Z,28.92
2023-01-13T21:44:38.483Z,27.85
2023-01-13T21:47:49.031Z,28.62
2023-01-13T21:50:50.889Z,31.62
2023-01-13T21:53:53.547Z,25.37
2023-01-13T21:56:55.255Z,29.40
2023-01-13T21:59:56.996Z,33.17
2023-01-13T22:03:00.125Z,31.65
2023-01-13T22:06:01.924Z,30.88
2023-01-13T22:09:04.029Z,29.85
2023-01-13T22:12:05.894Z,36.03
2023-01-13T22:15:08.651Z,31.80
2023-01-13T22:18:10.327Z,30.58
2023-01-13T22:21:12.046Z,32.60
2023-01-13T22:24:13.917Z,32.10
2023-01-13T22:27:20.987Z,33.75
2023-01-13T22:30:22.786Z,29.77
2023-01-13T22:33:25.531Z,30.40
2023-01-13T22:36:27.250Z,29.48
2023-01-13T22:39:28.999Z,33.83
2023-01-13T22:42:30.660Z,33.88
2023-01-13T22:45:32.419Z,36.67
2023-01-13T22:48:35.063Z,37.17
2023-01-13T22:51:36.867Z,39.03
2023-01-13T22:54:38.514Z,36.50
2023-01-13T22:57:47.692Z,42.10
2023-01-13T23:00:49.824Z,40.17
2023-01-13T23:03:51.775Z,37.63
2023-01-13T23:06:53.540Z,41.47
2023-01-13T23:09:55.278Z,41.37
2023-01-13T23:12:57.002Z,33.70
2023-01-13T23:16:03.589Z,33.00
2023-01-13T23:19:07.104Z,41.92
2023-01-13T23:22:08.888Z,37.33
2023-01-13T23:25:11.241Z,34.92
2023-01-13T23:28:12.998Z,33.75
2023-01-13T23:31:17.990Z,35.50
2023-01-13T23:34:19.671Z,34.97
2023-01-13T23:37:21.385Z,36.05
2023-01-13T23:40:23.099Z,49.53
2023-01-13T23:43:28.926Z,40.90
2023-01-13T23:46:33.075Z,41.72
2023-01-13T23:49:34.923Z,43.83
2023-01-13T23:52:36.696Z,38.78
2023-01-13T23:55:38.388Z,46.67
2023-01-13T23:58:41.436Z,42.47
